Terminal Aerodrome Forecast
Issued by NWS

Home | Current Version | Previous Version | Text Only | Print | Product List | Glossary On
Versions: 1 2 3 4 5 6 7 8 9 10 11 12 13 14 15 16 17 18 19 20
000
FTUS45 KRIW 212300
TAFLND
TAF
KLND 212325Z 2200/2224 30010KT P6SM SCT080 BKN150
     FM220200 29007KT P6SM SCT100
     FM221300 VRB04KT P6SM SCT070=

USA.gov is the U.S. government's official web portal to all federal, state and local government web resources and services.